To NAV CANADA Home Page Login to a new session Search on AWWS site Feedback and Comments Disclaimer Vers la page française équivalente Tips FAQ What's new on the site To the Forecasts and Observations / NOTAM section To "File a Flight Plan" website Publications and other links Update of the User's profile FIC Telephone Numbers My Weather Data Folder Route Weather Data Regional Weather Data Local Weather Data To the Forecasts and Observations / NOTAM section
Request Generated 12/04/2016 at 22:23:30 UTC . Weather information available at that time is displayed.

METAR/TAF

GOOSE BAY/NL    

METAR CYYR 042200Z 30004KT 15SM -SN BKN030 M09/M14 A2989 RMK SC7 SLP128=
METAR CYYR 042100Z 32003KT 15SM -SN OVC030 M09/M14 A2989 RMK SC8 SLP128=
METAR CYYR 042000Z 29009KT 15SM -SN BKN030 M09/M14 A2988 RMK SC7 SLP124=

TAF AMD CYYR 041739Z 0418/0518 27012KT P6SM -SHSN SCT020 BKN040 TEMPO
0418/0423 5SM -SHSN OVC020
FM042300 27005KT P6SM SCT040 BKN120
FM050400 25005KT P6SM SCT010 BKN025 TEMPO 0504/0512 BKN010
RMK NXT FCST BY 050000Z=
Your time UTC time
Weather data provided by Environment Canada and NAV CANADA